sensor_id;sensor_type;location;lat;lon;timestamp;pressure;altitude;pressure_sealevel;temperature;humidity
33731;BME280;22931;48.636;9.000;2022-09-28T00:03:46;94354.06;;;11.66;63.51
33731;BME280;22931;48.636;9.000;2022-09-28T00:08:57;94356.75;;;11.70;63.55
33731;BME280;22931;48.636;9.000;2022-09-28T00:14:05;94348.47;;;11.71;63.35
33731;BME280;22931;48.636;9.000;2022-09-28T00:19:12;94327.03;;;11.73;63.68
33731;BME280;22931;48.636;9.000;2022-09-28T00:24:24;94333.03;;;11.77;63.94
33731;BME280;22931;48.636;9.000;2022-09-28T00:29:33;94334.91;;;11.80;63.85
33731;BME280;22931;48.636;9.000;2022-09-28T00:34:42;94303.66;;;11.82;64.03
33731;BME280;22931;48.636;9.000;2022-09-28T00:39:55;94298.00;;;11.87;64.15
33731;BME280;22931;48.636;9.000;2022-09-28T00:45:03;94277.28;;;11.89;63.81
33731;BME280;22931;48.636;9.000;2022-09-28T00:50:17;94253.16;;;11.94;64.46
33731;BME280;22931;48.636;9.000;2022-09-28T00:55:33;94252.78;;;11.99;64.74
33731;BME280;22931;48.636;9.000;2022-09-28T01:00:44;94234.69;;;11.98;64.13
33731;BME280;22931;48.636;9.000;2022-09-28T01:05:54;94236.19;;;12.02;64.50
33731;BME280;22931;48.636;9.000;2022-09-28T01:11:05;94228.25;;;12.06;64.50
33731;BME280;22931;48.636;9.000;2022-09-28T01:16:18;94208.66;;;12.10;64.80
33731;BME280;22931;48.636;9.000;2022-09-28T01:21:36;94202.25;;;12.11;64.46
33731;BME280;22931;48.636;9.000;2022-09-28T01:27:03;94203.75;;;12.16;64.68
33731;BME280;22931;48.636;9.000;2022-09-28T01:32:25;94195.44;;;12.17;64.57
33731;BME280;22931;48.636;9.000;2022-09-28T01:37:38;94184.53;;;12.15;64.28
33731;BME280;22931;48.636;9.000;2022-09-28T01:42:53;94169.44;;;12.19;64.62
33731;BME280;22931;48.636;9.000;2022-09-28T01:48:04;94158.53;;;12.17;64.65
33731;BME280;22931;48.636;9.000;2022-09-28T01:53:18;94150.97;;;12.19;64.69
33731;BME280;22931;48.636;9.000;2022-09-28T01:58:35;94150.59;;;12.21;64.49
33731;BME280;22931;48.636;9.000;2022-09-28T02:03:48;94131.38;;;12.20;64.83
33731;BME280;22931;48.636;9.000;2022-09-28T02:09:02;94121.59;;;12.21;64.51
33731;BME280;22931;48.636;9.000;2022-09-28T02:14:17;94123.09;;;12.22;64.64
33731;BME280;22931;48.636;9.000;2022-09-28T02:19:27;94115.94;;;12.22;64.55
33731;BME280;22931;48.636;9.000;2022-09-28T02:24:38;94112.53;;;12.25;64.72
33731;BME280;22931;48.636;9.000;2022-09-28T02:29:49;94103.84;;;12.28;64.53
33731;BME280;22931;48.636;9.000;2022-09-28T02:34:56;94104.97;;;12.27;64.54
33731;BME280;22931;48.636;9.000;2022-09-28T02:40:11;94094.00;;;12.32;64.46
33731;BME280;22931;48.636;9.000;2022-09-28T02:45:32;94093.25;;;12.35;64.60
33731;BME280;22931;48.636;9.000;2022-09-28T02:50:48;94092.47;;;12.35;64.47
33731;BME280;22931;48.636;9.000;2022-09-28T02:56:10;94079.66;;;12.37;64.51
33731;BME280;22931;48.636;9.000;2022-09-28T03:01:30;94085.31;;;12.35;64.47
33731;BME280;22931;48.636;9.000;2022-09-28T03:06:46;94084.16;;;12.36;64.86
33731;BME280;22931;48.636;9.000;2022-09-28T03:11:57;94078.53;;;12.34;64.41
33731;BME280;22931;48.636;9.000;2022-09-28T03:17:09;94074.03;;;12.35;64.81
33731;BME280;22931;48.636;9.000;2022-09-28T03:22:17;94081.19;;;12.34;64.62
33731;BME280;22931;48.636;9.000;2022-09-28T03:27:25;94080.44;;;12.34;64.27
33731;BME280;22931;48.636;9.000;2022-09-28T03:32:35;94083.44;;;12.36;64.52
33731;BME280;22931;48.636;9.000;2022-09-28T03:37:43;94078.53;;;12.34;64.61
33731;BME280;22931;48.636;9.000;2022-09-28T03:42:51;94086.47;;;12.34;64.48
33731;BME280;22931;48.636;9.000;2022-09-28T03:48:01;94077.41;;;12.35;64.57
33731;BME280;22931;48.636;9.000;2022-09-28T03:53:08;94064.59;;;12.34;64.50
33731;BME280;22931;48.636;9.000;2022-09-28T03:58:16;94067.63;;;12.32;64.46
33731;BME280;22931;48.636;9.000;2022-09-28T04:03:29;94062.72;;;12.34;64.76
33731;BME280;22931;48.636;9.000;2022-09-28T04:08:37;94057.84;;;12.33;64.44
33731;BME280;22931;48.636;9.000;2022-09-28T04:13:47;94060.47;;;12.33;64.59
33731;BME280;22931;48.636;9.000;2022-09-28T04:18:59;94056.69;;;12.34;64.56
33731;BME280;22931;48.636;9.000;2022-09-28T04:24:08;94051.81;;;12.32;64.49
33731;BME280;22931;48.636;9.000;2022-09-28T04:29:16;94057.09;;;12.32;64.45
33731;BME280;22931;48.636;9.000;2022-09-28T04:34:27;94065.34;;;12.34;64.69
33731;BME280;22931;48.636;9.000;2022-09-28T04:39:40;94060.88;;;12.31;64.79
33731;BME280;22931;48.636;9.000;2022-09-28T04:44:52;94072.16;;;12.32;64.83
33731;BME280;22931;48.636;9.000;2022-09-28T04:50:04;94082.34;;;12.33;65.14
33731;BME280;22931;48.636;9.000;2022-09-28T04:55:12;94080.34;;;12.48;64.83
33731;BME280;22931;48.636;9.000;2022-09-28T05:00:21;94074.44;;;12.30;64.67
33731;BME280;22931;48.636;9.000;2022-09-28T05:05:31;94082.00;;;12.24;64.36
33731;BME280;22931;48.636;9.000;2022-09-28T05:10:39;94077.59;;;12.14;64.19
33731;BME280;22931;48.636;9.000;2022-09-28T05:15:46;94094.56;;;12.06;63.96
33731;BME280;22931;48.636;9.000;2022-09-28T05:21:08;94090.84;;;12.00;64.29
33731;BME280;22931;48.636;9.000;2022-09-28T05:26:17;94076.59;;;11.90;64.46
33731;BME280;22931;48.636;9.000;2022-09-28T05:31:25;94083.06;;;11.82;64.35
33731;BME280;22931;48.636;9.000;2022-09-28T05:36:36;94087.59;;;11.78;64.80
33731;BME280;22931;48.636;9.000;2022-09-28T05:41:46;94103.06;;;11.73;64.92
33731;BME280;22931;48.636;9.000;2022-09-28T05:46:53;94103.81;;;11.70;65.01
33731;BME280;22931;48.636;9.000;2022-09-28T05:52:04;94110.56;;;11.71;65.04
33731;BME280;22931;48.636;9.000;2022-09-28T05:57:12;94111.38;;;11.68;65.19
33731;BME280;22931;48.636;9.000;2022-09-28T06:02:20;94110.94;;;11.66;65.64
33731;BME280;22931;48.636;9.000;2022-09-28T06:07:31;94105.31;;;11.67;65.74
33731;BME280;22931;48.636;9.000;2022-09-28T06:12:38;94119.59;;;11.66;66.17
33731;BME280;22931;48.636;9.000;2022-09-28T06:17:46;94116.22;;;11.66;66.01
33731;BME280;22931;48.636;9.000;2022-09-28T06:22:56;94127.91;;;11.68;65.54
33731;BME280;22931;48.636;9.000;2022-09-28T06:28:06;94133.94;;;11.69;66.17
33731;BME280;22931;48.636;9.000;2022-09-28T06:33:15;94126.03;;;11.69;65.76
33731;BME280;22931;48.636;9.000;2022-09-28T06:38:25;94136.94;;;11.71;66.35
33731;BME280;22931;48.636;9.000;2022-09-28T06:43:33;94135.81;;;11.72;66.14
33731;BME280;22931;48.636;9.000;2022-09-28T06:48:43;94143.69;;;11.75;66.41
33731;BME280;22931;48.636;9.000;2022-09-28T06:53:54;94148.53;;;11.80;66.42
33731;BME280;22931;48.636;9.000;2022-09-28T06:59:01;94155.31;;;11.81;66.56
33731;BME280;22931;48.636;9.000;2022-09-28T07:04:09;94160.59;;;11.85;66.98
33731;BME280;22931;48.636;9.000;2022-09-28T07:09:20;94173.38;;;11.86;67.76
33731;BME280;22931;48.636;9.000;2022-09-28T07:14:36;94170.72;;;11.90;67.25
33731;BME280;22931;48.636;9.000;2022-09-28T07:19:51;94189.91;;;11.94;67.34
33731;BME280;22931;48.636;9.000;2022-09-28T07:25:08;94195.16;;;12.01;67.89
33731;BME280;22931;48.636;9.000;2022-09-28T07:30:16;94209.81;;;12.06;67.76
33731;BME280;22931;48.636;9.000;2022-09-28T07:35:24;94213.97;;;12.07;67.98
33731;BME280;22931;48.636;9.000;2022-09-28T07:40:34;94226.75;;;12.12;67.18
33731;BME280;22931;48.636;9.000;2022-09-28T07:45:55;94232.03;;;12.08;67.18
33731;BME280;22931;48.636;9.000;2022-09-28T07:51:03;94236.56;;;12.04;67.09
33731;BME280;22931;48.636;9.000;2022-09-28T07:56:14;94243.34;;;12.02;67.18
33731;BME280;22931;48.636;9.000;2022-09-28T08:01:24;94254.28;;;11.97;66.80
33731;BME280;22931;48.636;9.000;2022-09-28T08:06:34;94254.66;;;11.95;66.90
33731;BME280;22931;48.636;9.000;2022-09-28T08:11:46;94256.16;;;11.96;67.19
33731;BME280;22931;48.636;9.000;2022-09-28T08:16:54;94261.44;;;11.96;67.40
33731;BME280;22931;48.636;9.000;2022-09-28T08:22:02;94254.66;;;11.99;67.59
33731;BME280;22931;48.636;9.000;2022-09-28T08:27:14;94261.41;;;12.07;67.80
33731;BME280;22931;48.636;9.000;2022-09-28T08:32:22;94284.00;;;12.11;67.28
33731;BME280;22931;48.636;9.000;2022-09-28T08:37:30;94285.47;;;12.16;67.31
33731;BME280;22931;48.636;9.000;2022-09-28T08:42:42;94286.19;;;12.23;67.47
33731;BME280;22931;48.636;9.000;2022-09-28T08:47:54;94286.53;;;12.32;67.57
33731;BME280;22931;48.636;9.000;2022-09-28T08:53:31;94300.44;;;12.43;67.37
33731;BME280;22931;48.636;9.000;2022-09-28T08:58:44;94292.50;;;12.47;67.22
33731;BME280;22931;48.636;9.000;2022-09-28T09:04:03;94299.25;;;12.51;67.29
33731;BME280;22931;48.636;9.000;2022-09-28T09:09:19;94304.50;;;12.58;67.38
33731;BME280;22931;48.636;9.000;2022-09-28T09:14:46;94310.50;;;12.66;67.52
33731;BME280;22931;48.636;9.000;2022-09-28T09:20:04;94316.13;;;12.68;67.10
33731;BME280;22931;48.636;9.000;2022-09-28T09:25:17;94325.91;;;12.71;67.07
33731;BME280;22931;48.636;9.000;2022-09-28T09:30:40;94333.03;;;12.78;66.91
33731;BME280;22931;48.636;9.000;2022-09-28T09:36:11;94339.44;;;12.84;66.81
33731;BME280;22931;48.636;9.000;2022-09-28T09:41:34;94345.44;;;12.88;66.86
33731;BME280;22931;48.636;9.000;2022-09-28T09:46:52;94338.97;;;12.96;67.03
33731;BME280;22931;48.636;9.000;2022-09-28T09:52:06;94348.38;;;13.04;66.65
33731;BME280;22931;48.636;9.000;2022-09-28T09:57:19;94349.13;;;13.08;66.39
33731;BME280;22931;48.636;9.000;2022-09-28T10:02:32;94341.16;;;13.15;66.23
33731;BME280;22931;48.636;9.000;2022-09-28T10:07:43;94336.22;;;13.20;66.23
33731;BME280;22931;48.636;9.000;2022-09-28T10:12:53;94344.47;;;13.26;65.63
33731;BME280;22931;48.636;9.000;2022-09-28T10:18:05;94338.38;;;13.33;65.63
33731;BME280;22931;48.636;9.000;2022-09-28T10:23:20;94347.44;;;13.35;65.62
33731;BME280;22931;48.636;9.000;2022-09-28T10:28:34;94345.91;;;13.38;65.47
33731;BME280;22931;48.636;9.000;2022-09-28T10:33:44;94349.66;;;13.40;65.52
33731;BME280;22931;48.636;9.000;2022-09-28T10:38:52;94345.44;;;13.46;65.18
33731;BME280;22931;48.636;9.000;2022-09-28T10:44:02;94349.19;;;13.52;64.91
33731;BME280;22931;48.636;9.000;2022-09-28T10:49:17;94351.78;;;13.59;64.53
33731;BME280;22931;48.636;9.000;2022-09-28T10:54:30;94354.78;;;13.61;64.85
33731;BME280;22931;48.636;9.000;2022-09-28T10:59:40;94350.56;;;13.67;64.51
33731;BME280;22931;48.636;9.000;2022-09-28T11:04:53;94359.19;;;13.75;64.45
33731;BME280;22931;48.636;9.000;2022-09-28T11:10:02;94353.50;;;13.76;64.11
33731;BME280;22931;48.636;9.000;2022-09-28T11:15:16;94351.22;;;13.82;63.41
33731;BME280;22931;48.636;9.000;2022-09-28T11:20:33;94343.97;;;13.86;62.98
